Minneapolis, Minnesota
Current Conditions -  °F | °C
As of 9:53 AM on Friday 31 Oct 2014 (Local Time) from KMSP Reporting Station
Clear Clear  
Wind Chill: 19°   Ceiling: Unl
Heat Index: 31°   Visibility: 10mi
Dew Point: 17°   Wind: 17mph
Humidity: 57%   Direction: 20°NNE
Pressure: 30.55"   Gusts: NA
Location:  44.98°N, 93.26°W
Report Text: KMSP 311453Z 02015KT 10SM CLR M01/M08 A3055 RMK AO2 SLP354 T10061083 51016
Loading
Personal Weather Stations






























Interactive Weather Map
Tropical Storm Tracking
New forecast layout! Learn more

10-Day Weather Forecast

Advertisements
Track Severe Weather on mobile